sensor_id;sensor_type;location;lat;lon;timestamp;P1;durP1;ratioP1;P2;durP2;ratioP2
53939;SDS011;39850;43.324;21.916;2023-06-24T00:26:18;14.0;;;12.0;;
53939;SDS011;39850;43.324;21.916;2023-06-24T00:30:54;14.0;;;12.0;;
53939;SDS011;39850;43.324;21.916;2023-06-24T00:35:31;14.0;;;12.0;;
53939;SDS011;39850;43.324;21.916;2023-06-24T00:40:11;14.0;;;12.0;;
53939;SDS011;39850;43.324;21.916;2023-06-24T00:44:49;13.0;;;11.0;;
53939;SDS011;39850;43.324;21.916;2023-06-24T00:49:27;13.0;;;11.0;;
53939;SDS011;39850;43.324;21.916;2023-06-24T00:54:04;13.0;;;11.0;;
53939;SDS011;39850;43.324;21.916;2023-06-24T00:58:42;13.0;;;11.0;;
53939;SDS011;39850;43.324;21.916;2023-06-24T01:03:19;13.0;;;11.0;;
53939;SDS011;39850;43.324;21.916;2023-06-24T01:07:58;13.0;;;11.0;;
53939;SDS011;39850;43.324;21.916;2023-06-24T01:12:41;13.0;;;11.0;;
53939;SDS011;39850;43.324;21.916;2023-06-24T01:45:00;15.0;;;13.0;;
53939;SDS011;39850;43.324;21.916;2023-06-24T01:49:46;15.0;;;13.0;;
53939;SDS011;39850;43.324;21.916;2023-06-24T01:54:31;16.0;;;14.0;;
53939;SDS011;39850;43.324;21.916;2023-06-24T01:59:12;16.0;;;14.0;;
53939;SDS011;39850;43.324;21.916;2023-06-24T02:04:02;17.0;;;14.0;;
53939;SDS011;39850;43.324;21.916;2023-06-24T02:08:53;17.0;;;14.0;;
53939;SDS011;39850;43.324;21.916;2023-06-24T02:13:40;17.0;;;14.0;;
53939;SDS011;39850;43.324;21.916;2023-06-24T02:18:22;17.0;;;14.0;;
53939;SDS011;39850;43.324;21.916;2023-06-24T02:23:03;17.0;;;14.0;;
53939;SDS011;39850;43.324;21.916;2023-06-24T02:27:44;17.0;;;14.0;;
53939;SDS011;39850;43.324;21.916;2023-06-24T02:32:22;17.0;;;14.0;;
53939;SDS011;39850;43.324;21.916;2023-06-24T06:23:16;27.0;;;18.0;;
53939;SDS011;39850;43.324;21.916;2023-06-24T06:27:52;27.0;;;18.0;;
53939;SDS011;39850;43.324;21.916;2023-06-24T06:32:29;27.0;;;18.0;;
53939;SDS011;39850;43.324;21.916;2023-06-24T06:37:06;27.0;;;18.0;;
53939;SDS011;39850;43.324;21.916;2023-06-24T06:41:42;27.0;;;18.0;;
53939;SDS011;39850;43.324;21.916;2023-06-24T06:46:20;27.0;;;18.0;;
53939;SDS011;39850;43.324;21.916;2023-06-24T06:50:57;27.0;;;18.0;;
53939;SDS011;39850;43.324;21.916;2023-06-24T09:05:09;28.0;;;19.0;;
53939;SDS011;39850;43.324;21.916;2023-06-24T09:09:45;28.0;;;19.0;;
53939;SDS011;39850;43.324;21.916;2023-06-24T09:14:27;28.0;;;19.0;;
53939;SDS011;39850;43.324;21.916;2023-06-24T09:19:06;28.0;;;19.0;;
53939;SDS011;39850;43.324;21.916;2023-06-24T09:23:44;28.0;;;19.0;;
53939;SDS011;39850;43.324;21.916;2023-06-24T09:28:20;28.0;;;19.0;;
53939;SDS011;39850;43.324;21.916;2023-06-24T10:23:57;29.0;;;21.0;;
53939;SDS011;39850;43.324;21.916;2023-06-24T10:29:11;29.0;;;21.0;;
53939;SDS011;39850;43.324;21.916;2023-06-24T10:33:53;29.0;;;21.0;;
53939;SDS011;39850;43.324;21.916;2023-06-24T10:38:30;29.0;;;21.0;;
53939;SDS011;39850;43.324;21.916;2023-06-24T10:43:29;29.0;;;21.0;;
53939;SDS011;39850;43.324;21.916;2023-06-24T10:48:11;29.0;;;21.0;;
53939;SDS011;39850;43.324;21.916;2023-06-24T12:53:41;26.0;;;22.0;;
53939;SDS011;39850;43.324;21.916;2023-06-24T12:58:24;26.0;;;22.0;;
53939;SDS011;39850;43.324;21.916;2023-06-24T13:03:01;26.0;;;22.0;;
53939;SDS011;39850;43.324;21.916;2023-06-24T13:07:37;26.0;;;22.0;;
53939;SDS011;39850;43.324;21.916;2023-06-24T13:12:14;26.0;;;22.0;;
53939;SDS011;39850;43.324;21.916;2023-06-24T13:16:51;26.0;;;22.0;;
53939;SDS011;39850;43.324;21.916;2023-06-24T13:21:28;26.0;;;22.0;;
53939;SDS011;39850;43.324;21.916;2023-06-24T13:26:05;27.0;;;23.0;;
53939;SDS011;39850;43.324;21.916;2023-06-24T13:30:43;27.0;;;23.0;;
53939;SDS011;39850;43.324;21.916;2023-06-24T14:35:26;41.0;;;37.0;;
53939;SDS011;39850;43.324;21.916;2023-06-24T14:40:07;41.0;;;37.0;;
53939;SDS011;39850;43.324;21.916;2023-06-24T14:44:44;41.0;;;37.0;;
53939;SDS011;39850;43.324;21.916;2023-06-24T14:49:21;41.0;;;37.0;;
53939;SDS011;39850;43.324;21.916;2023-06-24T14:53:57;41.0;;;37.0;;
53939;SDS011;39850;43.324;21.916;2023-06-24T14:58:34;41.0;;;37.0;;
53939;SDS011;39850;43.324;21.916;2023-06-24T15:35:26;43.0;;;45.0;;
53939;SDS011;39850;43.324;21.916;2023-06-24T15:40:05;43.0;;;45.0;;
53939;SDS011;39850;43.324;21.916;2023-06-24T15:44:42;42.0;;;44.0;;
53939;SDS011;39850;43.324;21.916;2023-06-24T15:49:18;42.0;;;44.0;;
53939;SDS011;39850;43.324;21.916;2023-06-24T15:53:55;42.0;;;44.0;;
53939;SDS011;39850;43.324;21.916;2023-06-24T15:58:32;42.0;;;44.0;;
53939;SDS011;39850;43.324;21.916;2023-06-24T16:03:09;42.0;;;44.0;;
53939;SDS011;39850;43.324;21.916;2023-06-24T16:07:45;42.0;;;44.0;;
53939;SDS011;39850;43.324;21.916;2023-06-24T16:12:22;42.0;;;44.0;;
53939;SDS011;39850;43.324;21.916;2023-06-24T16:53:51;35.0;;;38.0;;
53939;SDS011;39850;43.324;21.916;2023-06-24T16:58:27;35.0;;;38.0;;
53939;SDS011;39850;43.324;21.916;2023-06-24T17:03:04;35.0;;;38.0;;
53939;SDS011;39850;43.324;21.916;2023-06-24T17:07:40;36.0;;;38.0;;
53939;SDS011;39850;43.324;21.916;2023-06-24T17:12:17;36.0;;;38.0;;
53939;SDS011;39850;43.324;21.916;2023-06-24T17:16:53;36.0;;;38.0;;
53939;SDS011;39850;43.324;21.916;2023-06-24T17:21:30;36.0;;;38.0;;
53939;SDS011;39850;43.324;21.916;2023-06-24T17:26:08;36.0;;;38.0;;
53939;SDS011;39850;43.324;21.916;2023-06-24T17:30:44;36.0;;;38.0;;
53939;SDS011;39850;43.324;21.916;2023-06-24T18:16:51;27.0;;;28.0;;
53939;SDS011;39850;43.324;21.916;2023-06-24T18:21:28;27.0;;;28.0;;
53939;SDS011;39850;43.324;21.916;2023-06-24T18:26:04;27.0;;;28.0;;
53939;SDS011;39850;43.324;21.916;2023-06-24T18:30:41;27.0;;;28.0;;
53939;SDS011;39850;43.324;21.916;2023-06-24T18:35:17;27.0;;;28.0;;
53939;SDS011;39850;43.324;21.916;2023-06-24T18:39:54;27.0;;;28.0;;
53939;SDS011;39850;43.324;21.916;2023-06-24T19:35:13;19.0;;;20.0;;
53939;SDS011;39850;43.324;21.916;2023-06-24T19:39:50;19.0;;;20.0;;
53939;SDS011;39850;43.324;21.916;2023-06-24T19:44:26;18.0;;;20.0;;
53939;SDS011;39850;43.324;21.916;2023-06-24T19:49:03;18.0;;;20.0;;
53939;SDS011;39850;43.324;21.916;2023-06-24T19:53:39;18.0;;;20.0;;
53939;SDS011;39850;43.324;21.916;2023-06-24T19:58:16;18.0;;;20.0;;
53939;SDS011;39850;43.324;21.916;2023-06-24T20:02:53;18.0;;;20.0;;
53939;SDS011;39850;43.324;21.916;2023-06-24T20:07:29;18.0;;;19.0;;
53939;SDS011;39850;43.324;21.916;2023-06-24T20:12:10;18.0;;;19.0;;
53939;SDS011;39850;43.324;21.916;2023-06-24T20:58:13;20.0;;;21.0;;
53939;SDS011;39850;43.324;21.916;2023-06-24T21:02:50;20.0;;;21.0;;
53939;SDS011;39850;43.324;21.916;2023-06-24T21:07:26;23.0;;;24.0;;
53939;SDS011;39850;43.324;21.916;2023-06-24T21:12:06;23.0;;;24.0;;
53939;SDS011;39850;43.324;21.916;2023-06-24T21:16:43;23.0;;;24.0;;
53939;SDS011;39850;43.324;21.916;2023-06-24T21:21:20;23.0;;;24.0;;
53939;SDS011;39850;43.324;21.916;2023-06-24T21:25:57;26.0;;;27.0;;
53939;SDS011;39850;43.324;21.916;2023-06-24T21:30:33;26.0;;;27.0;;
53939;SDS011;39850;43.324;21.916;2023-06-24T23:35:14;24.0;;;25.0;;
53939;SDS011;39850;43.324;21.916;2023-06-24T23:39:53;24.0;;;25.0;;
53939;SDS011;39850;43.324;21.916;2023-06-24T23:44:32;24.0;;;25.0;;
53939;SDS011;39850;43.324;21.916;2023-06-24T23:49:09;22.0;;;24.0;;
53939;SDS011;39850;43.324;21.916;2023-06-24T23:53:45;22.0;;;24.0;;
53939;SDS011;39850;43.324;21.916;2023-06-24T23:58:22;21.0;;;22.0;;
